Time;durP1;ratioP1;P1;durP2;ratioP2;P2;SDS_P1;SDS_P2;PMS_P1;PMS_P2;Temp;Humidity;BMP_temperature;BMP_pressure;BME280_temperature;BME280_humidity;BME280_pressure;Samples;Min_cycle;Max_cycle;Signal;HPM_P1;HPM_P2
2023/10/16 00:02:29;;;;;;;12.03;8.37;;;;;4.30;101907.00;;;;10417952;28;20233;-72
2023/10/16 00:07:31;;;;;;;14.23;9.30;;;;;4.30;101898.00;;;;10418826;28;20214;-71
2023/10/16 00:12:33;;;;;;;15.47;8.80;;;;;4.30;101906.00;;;;10415002;28;20203;-71
2023/10/16 00:17:35;;;;;;;14.17;9.17;;;;;4.20;101905.00;;;;10415891;28;20203;-71
2023/10/16 00:22:37;;;;;;;16.90;10.07;;;;;4.20;101899.00;;;;10425781;28;20275;-71
2023/10/16 00:27:39;;;;;;;12.57;8.53;;;;;4.10;101893.00;;;;10414864;28;20272;-71
2023/10/16 00:32:41;;;;;;;10.20;7.77;;;;;4.10;101893.00;;;;10415413;28;20233;-71
2023/10/16 00:37:43;;;;;;;10.47;7.87;;;;;4.10;101888.00;;;;10412998;28;20709;-71
2023/10/16 00:42:48;;;;;;;14.03;7.97;;;;;4.00;101889.00;;;;10416289;28;20225;-71
2023/10/16 00:47:50;;;;;;;9.20;8.00;;;;;4.00;101886.00;;;;10424774;28;20202;-71
2023/10/16 00:52:52;;;;;;;16.27;8.93;;;;;4.00;101889.00;;;;10415634;28;20214;-69
2023/10/16 00:57:56;;;;;;;19.77;8.03;;;;;3.90;101888.00;;;;10421181;28;20214;-72
2023/10/16 01:02:57;;;;;;;15.20;8.90;;;;;3.90;101882.00;;;;10411376;28;20280;-73
2023/10/16 01:08:04;;;;;;;14.80;8.17;;;;;3.90;101876.00;;;;10415256;28;20210;-71
2023/10/16 01:13:12;;;;;;;13.73;8.33;;;;;3.90;101874.00;;;;10416046;28;20213;-71
2023/10/16 01:18:15;;;;;;;17.87;8.53;;;;;3.90;101874.00;;;;10410769;28;20610;-71
2023/10/16 01:23:19;;;;;;;13.13;7.00;;;;;3.90;101873.00;;;;10415233;28;20234;-71
2023/10/16 01:28:21;;;;;;;15.67;7.33;;;;;3.90;101865.00;;;;10408340;28;20249;-72
2023/10/16 01:33:23;;;;;;;14.17;7.10;;;;;3.80;101854.00;;;;10416891;28;20857;-73
2023/10/16 01:38:26;;;;;;;9.60;7.07;;;;;3.90;101858.00;;;;10416483;28;20234;-71
2023/10/16 01:43:29;;;;;;;10.50;6.37;;;;;3.90;101858.00;;;;10433800;28;20206;-71
2023/10/16 01:48:31;;;;;;;8.70;6.20;;;;;3.90;101858.00;;;;10428853;28;20571;-73
2023/10/16 01:53:36;;;;;;;14.47;6.07;;;;;3.80;101848.00;;;;10410092;28;20300;-73
2023/10/16 01:58:43;;;;;;;12.10;5.70;;;;;3.70;101853.00;;;;10416734;28;20919;-71
2023/10/16 02:03:48;;;;;;;7.90;5.77;;;;;3.60;101860.00;;;;10413615;28;20246;-71
2023/10/16 02:08:50;;;;;;;8.73;5.37;;;;;3.60;101869.00;;;;10434268;28;20238;-70
2023/10/16 02:13:52;;;;;;;7.20;4.93;;;;;3.50;101870.00;;;;10416974;28;20206;-71
2023/10/16 02:18:56;;;;;;;12.70;5.37;;;;;3.50;101871.00;;;;10427874;28;20214;-71
2023/10/16 02:24:03;;;;;;;11.03;5.07;;;;;3.50;101863.00;;;;10415080;28;20202;-71
2023/10/16 02:29:05;;;;;;;6.87;5.07;;;;;3.40;101863.00;;;;10447242;28;20203;-71
2023/10/16 02:34:13;;;;;;;10.97;5.70;;;;;3.40;101856.00;;;;10423194;28;20206;-72
2023/10/16 02:39:35;;;;;;;8.10;4.77;;;;;3.40;101854.00;;;;10424183;28;20222;-71
2023/10/16 02:44:45;;;;;;;14.33;6.17;;;;;3.50;101848.00;;;;10430465;28;20206;-71
2023/10/16 02:49:47;;;;;;;12.93;5.43;;;;;3.50;101844.00;;;;10422733;28;20547;-73
2023/10/16 02:54:50;;;;;;;8.23;5.20;;;;;3.50;101840.00;;;;10423256;28;20211;-71
2023/10/16 02:59:52;;;;;;;7.40;4.90;;;;;3.40;101847.00;;;;10428833;28;20313;-71
2023/10/16 03:04:54;;;;;;;11.83;5.80;;;;;3.50;101840.00;;;;10423726;28;20240;-72
2023/10/16 03:10:00;;;;;;;9.70;4.60;;;;;3.50;101832.00;;;;10424163;28;20214;-71
2023/10/16 03:15:14;;;;;;;9.50;5.77;;;;;3.50;101822.00;;;;10415934;28;20209;-71
2023/10/16 03:20:21;;;;;;;8.73;5.23;;;;;3.40;101818.00;;;;10428876;28;20222;-68
2023/10/16 03:25:30;;;;;;;11.07;5.63;;;;;3.40;101828.00;;;;10423874;28;20265;-70
2023/10/16 03:30:34;;;;;;;8.47;5.30;;;;;3.30;101823.00;;;;10417639;28;20221;-72
2023/10/16 03:35:38;;;;;;;9.47;5.80;;;;;3.30;101823.00;;;;10423743;28;20319;-68
2023/10/16 03:40:41;;;;;;;9.50;4.90;;;;;3.20;101823.00;;;;10420450;28;20222;-69
2023/10/16 03:45:43;;;;;;;10.93;5.17;;;;;3.20;101823.00;;;;10421278;28;20727;-68
2023/10/16 03:50:46;;;;;;;7.43;5.47;;;;;3.20;101823.00;;;;10425802;28;20210;-72
2023/10/16 03:55:48;;;;;;;7.53;4.73;;;;;3.20;101811.00;;;;10411329;28;20207;-70
2023/10/16 04:00:52;;;;;;;7.33;4.03;;;;;3.20;101812.00;;;;10424345;28;20217;-68
2023/10/16 04:05:55;;;;;;;7.17;5.70;;;;;3.20;101812.00;;;;10420852;28;20800;-69
2023/10/16 04:10:57;;;;;;;8.53;4.87;;;;;3.30;101802.00;;;;10421621;28;20872;-69
2023/10/16 04:27:29;;;;;;;9.00;4.60;;;;;3.30;101796.00;;;;10423648;28;20287;-72
2023/10/16 04:31:57;;;;;;;11.93;5.20;;;;;3.20;101796.00;;;;10418039;28;20272;-74
2023/10/16 04:47:41;;;;;;;6.07;4.60;;;;;3.10;101787.00;;;;10424806;28;20262;-75
2023/10/16 06:17:51;;;;;;;8.93;4.63;;;;;2.80;101751.00;;;;10417765;28;20209;-73
2023/10/16 06:22:53;;;;;;;11.53;6.03;;;;;2.80;101735.00;;;;10406959;28;20923;-70
2023/10/16 06:27:56;;;;;;;9.23;5.27;;;;;2.80;101744.00;;;;10417428;28;20222;-72
2023/10/16 06:33:04;;;;;;;7.47;4.80;;;;;2.80;101747.00;;;;10420782;28;20205;-70
2023/10/16 06:38:11;;;;;;;7.07;4.93;;;;;2.90;101747.00;;;;10419727;28;20205;-70
2023/10/16 06:43:14;;;;;;;11.73;5.17;;;;;3.00;101748.00;;;;10430364;28;20229;-69
2023/10/16 06:48:16;;;;;;;22.73;8.20;;;;;3.10;101761.00;;;;10431382;28;20225;-72
2023/10/16 06:53:18;;;;;;;15.37;7.63;;;;;3.20;101757.00;;;;10422888;28;20733;-73
2023/10/16 06:58:21;;;;;;;15.90;6.80;;;;;3.30;101771.00;;;;10416228;28;20193;-73
2023/10/16 07:03:24;;;;;;;10.30;6.87;;;;;3.50;101756.00;;;;10409840;28;20680;-73
2023/10/16 07:08:26;;;;;;;13.27;7.30;;;;;3.70;101751.00;;;;10418653;28;20201;-74
2023/10/16 07:13:30;;;;;;;12.17;7.60;;;;;3.90;101764.00;;;;10408564;28;20276;-73
2023/10/16 07:18:33;;;;;;;12.07;7.37;;;;;4.20;101774.00;;;;10421676;28;20195;-73
2023/10/16 07:23:37;;;;;;;12.93;7.83;;;;;4.40;101764.00;;;;10423090;28;20911;-73
2023/10/16 07:28:40;;;;;;;14.60;7.00;;;;;4.60;101760.00;;;;10423349;28;20199;-73
2023/10/16 07:33:44;;;;;;;11.70;7.60;;;;;4.80;101774.00;;;;10422232;28;20260;-73
2023/10/16 07:38:46;;;;;;;16.27;9.27;;;;;5.00;101774.00;;;;10419952;28;20284;-73
2023/10/16 07:43:47;;;;;;;18.80;8.53;;;;;5.30;101770.00;;;;10421618;28;20589;-73
2023/10/16 07:48:52;;;;;;;20.33;10.17;;;;;5.70;101775.00;;;;10421955;28;20230;-70
2023/10/16 07:53:56;;;;;;;18.57;10.00;;;;;6.10;101779.00;;;;10425846;28;20199;-73
2023/10/16 07:59:07;;;;;;;19.77;11.57;;;;;6.70;101779.00;;;;10426574;28;20359;-73
2023/10/16 08:04:19;;;;;;;22.33;14.90;;;;;7.10;101771.00;;;;10423968;28;20211;-73
2023/10/16 08:14:26;;;;;;;27.53;18.40;;;;;7.60;101771.00;;;;10427799;28;20645;-71
2023/10/16 08:19:31;;;;;;;34.03;23.40;;;;;8.10;101776.00;;;;10415875;28;20284;-71
2023/10/16 08:24:34;;;;;;;29.83;18.07;;;;;8.30;101785.00;;;;10420910;28;20187;-71
2023/10/16 08:29:37;;;;;;;39.63;26.20;;;;;9.00;101777.00;;;;10417435;28;20580;-71
2023/10/16 08:34:40;;;;;;;35.77;24.43;;;;;9.70;101778.00;;;;10419440;28;20193;-71
2023/10/16 08:39:48;;;;;;;31.23;21.83;;;;;10.40;101779.00;;;;10424754;28;20262;-71
2023/10/16 08:44:51;;;;;;;17.97;13.67;;;;;10.60;101776.00;;;;10411043;28;20222;-71
2023/10/16 08:49:55;;;;;;;18.30;11.23;;;;;10.50;101770.00;;;;10410554;28;20232;-71
2023/10/16 08:55:02;;;;;;;25.70;12.83;;;;;10.60;101768.00;;;;10409527;28;20191;-71
2023/10/16 09:00:10;;;;;;;17.57;11.23;;;;;10.80;101773.00;;;;10411951;28;20498;-71
2023/10/16 09:05:12;;;;;;;17.67;10.40;;;;;10.90;101773.00;;;;10415375;28;20210;-72
2023/10/16 09:10:15;;;;;;;17.20;8.20;;;;;11.00;101764.00;;;;10412076;28;20234;-73
2023/10/16 09:15:24;;;;;;;15.97;8.00;;;;;11.20;101755.00;;;;10424578;28;20212;-74
2023/10/16 09:20:33;;;;;;;11.17;5.90;;;;;11.40;101764.00;;;;10418255;28;20608;-73
2023/10/16 09:25:35;;;;;;;14.37;5.90;;;;;11.60;101765.00;;;;10415197;28;20202;-73
2023/10/16 09:30:42;;;;;;;13.63;4.53;;;;;11.70;101762.00;;;;10413493;28;20195;-73
2023/10/16 09:35:50;;;;;;;9.90;3.83;;;;;11.80;101759.00;;;;10418056;28;20661;-74
2023/10/16 09:51:44;;;;;;;9.27;2.40;;;;;12.20;101751.00;;;;10332653;28;20210;-71
2023/10/16 09:57:08;;;;;;;7.87;3.03;;;;;12.20;101748.00;;;;10336176;28;20210;-73
2023/10/16 10:02:18;;;;;;;7.27;2.90;;;;;12.30;101748.00;;;;10341368;28;20748;-72
2023/10/16 10:07:34;;;;;;;7.53;3.70;;;;;12.50;101744.00;;;;10344292;28;20198;-72
2023/10/16 10:12:42;;;;;;;6.50;3.63;;;;;12.50;101736.00;;;;10386797;28;20198;-73
2023/10/16 10:17:47;;;;;;;5.60;3.30;;;;;12.60;101735.00;;;;10382438;28;20194;-73
2023/10/16 10:22:56;;;;;;;3.77;3.20;;;;;12.80;101734.00;;;;10352906;28;20233;-71
2023/10/16 10:28:09;;;;;;;9.27;4.10;;;;;13.10;101734.00;;;;10370411;28;20243;-71
2023/10/16 10:33:13;;;;;;;10.23;4.40;;;;;13.20;101735.00;;;;10368031;28;20183;-71
2023/10/16 10:38:26;;;;;;;10.35;4.32;;;;;13.30;101733.00;;;;10370041;28;21699;-71
2023/10/16 10:43:46;;;;;;;8.52;3.70;;;;;13.50;101735.00;;;;10369385;28;20218;-71
2023/10/16 10:48:48;;;;;;;7.90;3.40;;;;;13.70;101725.00;;;;10368207;28;20209;-71
2023/10/16 10:54:06;;;;;;;6.43;2.10;;;;;13.80;101721.00;;;;10368999;28;20205;-71
2023/10/16 10:59:09;;;;;;;5.88;1.70;;;;;13.90;101703.00;;;;10367333;28;20202;-71
2023/10/16 11:04:15;;;;;;;5.45;2.53;;;;;13.80;101707.00;;;;10367280;28;20226;-71
2023/10/16 11:09:21;;;;;;;4.15;1.70;;;;;13.90;101706.00;;;;10367055;28;20202;-71
2023/10/16 11:14:36;;;;;;;4.75;2.22;;;;;14.00;101698.00;;;;10363029;28;21723;-72
2023/10/16 11:19:49;;;;;;;12.00;4.07;;;;;14.20;101700.00;;;;10365129;28;20202;-71
2023/10/16 11:24:51;;;;;;;12.68;9.00;;;;;14.10;101685.00;;;;10365468;28;20233;-71
2023/10/16 11:29:53;;;;;;;10.85;3.38;;;;;14.10;101687.00;;;;10366764;28;20210;-71
2023/10/16 11:35:13;;;;;;;5.35;2.70;;;;;14.20;101690.00;;;;10378949;28;20206;-72
2023/10/16 11:40:19;;;;;;;7.90;3.10;;;;;14.30;101682.00;;;;10378677;28;20222;-71
2023/10/16 11:45:23;;;;;;;7.07;3.45;;;;;14.30;101674.00;;;;10375868;28;20293;-72
2023/10/16 11:50:38;;;;;;;6.38;2.08;;;;;14.30;101665.00;;;;10373276;28;20253;-72
2023/10/16 11:55:42;;;;;;;10.77;2.45;;;;;14.50;101651.00;;;;10372938;28;20727;-72
2023/10/16 12:00:54;;;;;;;6.60;2.30;;;;;14.50;101653.00;;;;10370152;28;20222;-72
2023/10/16 12:05:56;;;;;;;5.75;2.42;;;;;14.40;101643.00;;;;10371843;28;21550;-72
2023/10/16 12:11:01;;;;;;;8.07;2.88;;;;;14.60;101636.00;;;;10372594;28;20271;-72
2023/10/16 12:16:05;;;;;;;5.82;2.72;;;;;14.60;101631.00;;;;10377166;28;20237;-72
2023/10/16 12:21:16;;;;;;;5.32;2.45;;;;;14.40;101627.00;;;;10375324;28;20222;-72
2023/10/16 12:26:19;;;;;;;4.60;1.90;;;;;14.50;101617.00;;;;10341934;28;20274;-72
2023/10/16 12:31:21;;;;;;;4.70;1.95;;;;;14.50;101616.00;;;;10330299;28;20251;-73
2023/10/16 12:36:25;;;;;;;8.00;2.53;;;;;14.50;101595.00;;;;10324642;28;20210;-72
2023/10/16 12:41:27;;;;;;;8.38;1.95;;;;;14.20;101593.00;;;;10324679;28;21948;-70
2023/10/16 12:46:31;;;;;;;4.88;1.88;;;;;13.90;101590.00;;;;10319277;28;21982;-71
2023/10/16 12:51:38;;;;;;;7.72;2.30;;;;;13.70;101580.00;;;;10317440;28;20214;-71
2023/10/16 12:56:43;;;;;;;8.63;2.65;;;;;14.00;101575.00;;;;10319988;28;20240;-71
2023/10/16 13:01:49;;;;;;;13.38;2.60;;;;;14.40;101565.00;;;;10317612;28;20220;-70
2023/10/16 13:06:51;;;;;;;6.20;2.35;;;;;14.70;101568.00;;;;10317597;28;20195;-71
2023/10/16 13:11:53;;;;;;;8.82;2.22;;;;;14.70;101562.00;;;;10302168;28;21744;-70
2023/10/16 13:16:56;;;;;;;6.75;1.95;;;;;14.70;101560.00;;;;10316704;28;20255;-71
2023/10/16 13:22:10;;;;;;;4.00;1.60;;;;;14.70;101545.00;;;;10314833;28;20245;-71
2023/10/16 13:27:16;;;;;;;3.95;2.00;;;;;14.60;101555.00;;;;10301986;28;20202;-71
2023/10/16 13:32:18;;;;;;;4.43;1.83;;;;;14.40;101555.00;;;;10321400;28;20242;-71
2023/10/16 13:37:20;;;;;;;4.47;1.70;;;;;14.10;101549.00;;;;10313494;28;21126;-72
2023/10/16 13:42:22;;;;;;;5.30;1.83;;;;;13.70;101538.00;;;;10324036;28;20337;-72
2023/10/16 13:47:24;;;;;;;9.98;2.28;;;;;13.40;101545.00;;;;10324940;28;20252;-71
2023/10/16 13:52:25;;;;;;;6.38;2.25;;;;;13.40;101538.00;;;;10327476;28;20336;-72
2023/10/16 13:57:28;;;;;;;7.38;1.75;;;;;13.30;101539.00;;;;10310693;28;20209;-72
2023/10/16 14:02:36;;;;;;;17.50;3.00;;;;;13.70;101529.00;;;;10327319;28;21604;-72
2023/10/16 14:07:38;;;;;;;4.30;1.50;;;;;13.50;101522.00;;;;10324112;28;22119;-71
2023/10/16 14:12:41;;;;;;;5.82;1.23;;;;;13.30;101531.00;;;;10323196;28;20329;-71
2023/10/16 14:17:45;;;;;;;2.20;1.23;;;;;13.20;101514.00;;;;10304685;28;20264;-72
2023/10/16 14:22:51;;;;;;;3.10;1.87;;;;;13.10;101514.00;;;;10329319;28;20218;-72
2023/10/16 14:27:55;;;;;;;4.77;1.57;;;;;13.50;101508.00;;;;10328714;28;20428;-72
2023/10/16 14:32:57;;;;;;;6.63;1.90;;;;;13.10;101513.00;;;;10325255;28;20244;-71
2023/10/16 14:37:59;;;;;;;5.95;2.10;;;;;12.90;101500.00;;;;10322637;28;20203;-71
2023/10/16 14:43:03;;;;;;;5.13;2.47;;;;;12.90;101508.00;;;;10326114;28;20230;-71
2023/10/16 14:48:09;;;;;;;7.17;2.73;;;;;13.00;101503.00;;;;10325262;28;20203;-71
2023/10/16 14:53:12;;;;;;;3.80;1.77;;;;;13.10;101494.00;;;;10324765;28;20233;-71
2023/10/16 14:58:14;;;;;;;6.77;2.77;;;;;13.00;101494.00;;;;10325407;28;20202;-71
2023/10/16 15:03:38;;;;;;;3.73;1.40;;;;;12.90;101496.00;;;;10329429;28;20292;-72
2023/10/16 15:08:44;;;;;;;8.43;1.90;;;;;13.00;101477.00;;;;10330921;28;20203;-71
2023/10/16 15:13:46;;;;;;;5.60;2.00;;;;;13.00;101483.00;;;;10327353;28;20198;-71
2023/10/16 15:18:48;;;;;;;63.00;38.53;;;;;12.70;101483.00;;;;10319769;28;20203;-72
2023/10/16 15:23:50;;;;;;;50.07;30.33;;;;;12.50;101477.00;;;;10324643;28;20287;-72
2023/10/16 15:28:52;;;;;;;15.90;8.43;;;;;12.40;101487.00;;;;10315181;28;20668;-71
2023/10/16 15:33:55;;;;;;;18.75;14.25;;;;;12.20;101481.00;;;;10324695;28;20209;-72
2023/10/16 15:38:57;;;;;;;19.20;7.50;;;;;12.10;101492.00;;;;10320542;28;20241;-72
2023/10/16 15:43:59;;;;;;;17.03;11.60;;;;;12.00;101489.00;;;;10322590;28;20317;-73
2023/10/16 15:49:01;;;;;;;9.80;5.20;;;;;12.00;101495.00;;;;10323355;28;20229;-71
2023/10/16 15:54:04;;;;;;;11.20;6.23;;;;;11.90;101487.00;;;;10313470;28;20344;-73
2023/10/16 15:59:06;;;;;;;6.97;3.13;;;;;11.70;101489.00;;;;10317283;28;20281;-72
2023/10/16 16:04:08;;;;;;;30.93;20.63;;;;;11.60;101487.00;;;;10320238;28;20304;-72
2023/10/16 16:09:13;;;;;;;9.17;5.17;;;;;11.50;101496.00;;;;10319629;28;20202;-72
2023/10/16 16:14:15;;;;;;;4.50;2.57;;;;;11.30;101483.00;;;;10328491;28;20198;-73
2023/10/16 16:19:23;;;;;;;4.90;2.00;;;;;11.10;101488.00;;;;10329035;28;20217;-73
2023/10/16 16:24:25;;;;;;;4.60;2.17;;;;;10.90;101483.00;;;;10327081;28;20218;-73
2023/10/16 16:29:27;;;;;;;48.23;27.83;;;;;10.70;101493.00;;;;10330536;28;20206;-72
2023/10/16 16:34:30;;;;;;;8.10;3.53;;;;;10.60;101495.00;;;;10330188;28;20220;-73
2023/10/16 16:39:32;;;;;;;7.33;5.17;;;;;10.40;101481.00;;;;10330478;28;21871;-73
2023/10/16 16:44:34;;;;;;;4.93;2.30;;;;;10.30;101475.00;;;;10328913;28;21294;-73
2023/10/16 16:49:36;;;;;;;2.17;1.57;;;;;10.20;101480.00;;;;10326797;28;22080;-73
2023/10/16 16:54:38;;;;;;;3.10;1.50;;;;;10.10;101487.00;;;;10329904;28;20228;-73
2023/10/16 16:59:40;;;;;;;8.20;3.57;;;;;10.00;101481.00;;;;10326416;28;20968;-73
2023/10/16 17:04:42;;;;;;;4.60;2.13;;;;;9.90;101485.00;;;;10329915;28;20959;-73
2023/10/16 17:09:44;;;;;;;4.80;4.10;;;;;9.90;101474.00;;;;10333938;28;20226;-72
2023/10/16 17:14:46;;;;;;;2.80;1.60;;;;;9.80;101469.00;;;;10338193;28;20303;-73
2023/10/16 17:19:51;;;;;;;5.93;3.33;;;;;9.70;101461.00;;;;10319141;28;20214;-73
2023/10/16 17:24:54;;;;;;;5.73;2.60;;;;;9.60;101462.00;;;;10322252;28;20716;-72
2023/10/16 17:29:56;;;;;;;6.90;4.13;;;;;9.60;101468.00;;;;10322357;28;20949;-72
2023/10/16 17:34:58;;;;;;;11.43;5.30;;;;;9.50;101465.00;;;;10321926;28;21829;-71
2023/10/16 17:40:00;;;;;;;7.07;3.00;;;;;9.40;101472.00;;;;10322770;28;20202;-72
2023/10/16 17:45:05;;;;;;;9.10;3.10;;;;;9.40;101466.00;;;;10321779;28;20218;-72
2023/10/16 17:50:07;;;;;;;5.80;2.43;;;;;9.30;101463.00;;;;10326753;28;21034;-72
2023/10/16 17:55:09;;;;;;;96.27;46.67;;;;;9.20;101471.00;;;;10326755;28;20312;-72
2023/10/16 18:00:15;;;;;;;78.80;44.87;;;;;9.10;101478.00;;;;10324747;28;20309;-72
2023/10/16 18:05:17;;;;;;;55.47;29.70;;;;;9.10;101471.00;;;;10326715;28;20698;-72
2023/10/16 18:10:19;;;;;;;37.07;19.97;;;;;9.10;101468.00;;;;10323708;28;21848;-71
2023/10/16 18:15:21;;;;;;;9.00;4.80;;;;;9.10;101457.00;;;;10323196;28;20206;-71
2023/10/16 18:20:23;;;;;;;9.70;6.83;;;;;9.00;101455.00;;;;10316482;28;20264;-72
2023/10/16 18:25:25;;;;;;;10.33;5.83;;;;;9.00;101460.00;;;;10326271;28;21295;-72
2023/10/16 18:30:27;;;;;;;8.27;3.70;;;;;8.90;101470.00;;;;10330600;28;20210;-72
2023/10/16 18:35:29;;;;;;;9.30;5.33;;;;;8.90;101461.00;;;;10334939;28;20214;-73
2023/10/16 18:40:35;;;;;;;22.10;9.57;;;;;8.90;101482.00;;;;10330174;28;20202;-72
2023/10/16 18:45:40;;;;;;;19.13;9.53;;;;;8.90;101462.00;;;;10330790;28;20267;-73
2023/10/16 18:50:41;;;;;;;14.37;6.00;;;;;8.80;101459.00;;;;10331768;28;20259;-73
2023/10/16 18:55:45;;;;;;;7.37;4.33;;;;;8.80;101455.00;;;;10332423;28;20265;-73
2023/10/16 19:00:48;;;;;;;7.27;5.10;;;;;8.70;101442.00;;;;10335539;28;20214;-72
2023/10/16 19:05:50;;;;;;;6.37;4.77;;;;;8.70;101441.00;;;;10333111;28;20357;-72
2023/10/16 19:10:56;;;;;;;8.27;4.47;;;;;8.70;101428.00;;;;10333828;28;20218;-72
2023/10/16 19:15:58;;;;;;;11.37;5.03;;;;;8.60;101431.00;;;;10333093;28;20303;-73
2023/10/16 19:21:01;;;;;;;7.60;4.57;;;;;8.60;101431.00;;;;10358740;28;20377;-73
2023/10/16 19:26:06;;;;;;;7.70;4.13;;;;;8.60;101417.00;;;;10333335;28;20237;-73
2023/10/16 19:31:14;;;;;;;8.57;4.20;;;;;8.50;101408.00;;;;10333251;28;20214;-73
2023/10/16 19:36:20;;;;;;;8.70;4.43;;;;;8.50;101407.00;;;;10332379;28;20242;-73
2023/10/16 19:41:22;;;;;;;11.77;7.10;;;;;8.50;101410.00;;;;10332338;28;20214;-73
2023/10/16 19:46:24;;;;;;;17.70;7.80;;;;;8.40;101399.00;;;;10332501;28;20241;-72
2023/10/16 19:51:27;;;;;;;7.87;5.90;;;;;8.40;101407.00;;;;10333187;28;20255;-72
2023/10/16 19:56:29;;;;;;;11.13;4.73;;;;;8.40;101412.00;;;;10333872;28;22065;-72
2023/10/16 20:01:33;;;;;;;9.13;4.50;;;;;8.40;101416.00;;;;10331302;28;20268;-73
2023/10/16 20:06:36;;;;;;;11.77;5.23;;;;;8.40;101418.00;;;;10354665;28;20229;-72
2023/10/16 20:11:39;;;;;;;8.53;4.83;;;;;8.40;101434.00;;;;10331736;28;20210;-72
2023/10/16 20:16:40;;;;;;;10.00;5.77;;;;;8.40;101425.00;;;;10332669;28;20212;-72
2023/10/16 20:21:45;;;;;;;8.90;6.17;;;;;8.40;101443.00;;;;10332092;28;20323;-72
2023/10/16 20:26:47;;;;;;;12.50;7.63;;;;;8.40;101449.00;;;;10330679;28;20309;-72
2023/10/16 20:31:49;;;;;;;11.60;6.73;;;;;8.40;101445.00;;;;10331682;28;20221;-73
2023/10/16 20:37:01;;;;;;;12.23;7.10;;;;;8.40;101418.00;;;;10327010;28;20214;-73
2023/10/16 20:42:03;;;;;;;7.27;5.83;;;;;8.30;101431.00;;;;10325982;28;20218;-74
2023/10/16 20:47:05;;;;;;;10.30;6.37;;;;;8.30;101443.00;;;;10329533;28;20609;-72
2023/10/16 20:52:07;;;;;;;8.70;6.70;;;;;8.20;101437.00;;;;10355010;28;20272;-71
2023/10/16 20:57:09;;;;;;;12.10;7.47;;;;;8.20;101433.00;;;;10329809;28;20206;-72
2023/10/16 21:02:11;;;;;;;14.97;7.77;;;;;8.20;101460.00;;;;10326545;28;20230;-72
2023/10/16 21:07:13;;;;;;;14.07;8.20;;;;;8.10;101461.00;;;;10325583;28;21196;-72
2023/10/16 21:12:16;;;;;;;13.57;7.60;;;;;8.10;101466.00;;;;10325840;28;20315;-71
2023/10/16 21:17:18;;;;;;;13.83;7.37;;;;;8.00;101460.00;;;;10327396;28;20314;-72
2023/10/16 21:22:22;;;;;;;13.50;8.33;;;;;7.90;101442.00;;;;10324539;28;20234;-71
2023/10/16 21:27:24;;;;;;;18.07;8.53;;;;;7.80;101446.00;;;;10325988;28;20334;-71
2023/10/16 21:32:26;;;;;;;14.80;9.07;;;;;7.80;101443.00;;;;10328140;28;22014;-72
2023/10/16 21:37:31;;;;;;;14.80;7.77;;;;;7.70;101439.00;;;;10309449;28;20206;-71
2023/10/16 21:42:33;;;;;;;12.20;8.67;;;;;7.60;101436.00;;;;10311543;28;20230;-72
2023/10/16 21:47:35;;;;;;;13.10;7.70;;;;;7.50;101450.00;;;;10326783;28;21309;-71
2023/10/16 21:52:38;;;;;;;17.97;9.20;;;;;7.50;101446.00;;;;10332455;28;20244;-71
2023/10/16 21:57:39;;;;;;;21.67;10.70;;;;;7.50;101435.00;;;;10337377;28;20213;-71
2023/10/16 22:02:43;;;;;;;23.83;14.03;;;;;7.40;101429.00;;;;10352126;28;20234;-72
2023/10/16 22:07:45;;;;;;;32.33;18.60;;;;;7.30;101432.00;;;;10372555;28;20936;-72
2023/10/16 22:12:51;;;;;;;18.33;10.63;;;;;7.30;101426.00;;;;10373866;28;20308;-72
2023/10/16 22:17:53;;;;;;;15.87;8.80;;;;;7.30;101407.00;;;;10357684;28;20217;-72
2023/10/16 22:22:56;;;;;;;13.43;8.80;;;;;7.30;101409.00;;;;10353823;28;20241;-72
2023/10/16 22:27:58;;;;;;;29.73;14.00;;;;;7.30;101406.00;;;;10352231;28;20894;-72
2023/10/16 22:33:00;;;;;;;15.60;10.17;;;;;7.20;101404.00;;;;10352138;28;21152;-72
2023/10/16 22:38:02;;;;;;;14.90;9.03;;;;;7.20;101389.00;;;;10350585;28;20225;-72
2023/10/16 22:43:04;;;;;;;23.57;12.47;;;;;7.10;101394.00;;;;10351478;28;20230;-72
2023/10/16 22:48:07;;;;;;;24.93;13.13;;;;;7.10;101413.00;;;;10353447;28;22121;-72
2023/10/16 22:53:09;;;;;;;20.60;10.53;;;;;7.00;101415.00;;;;10353081;28;20918;-72
2023/10/16 22:58:11;;;;;;;20.63;12.03;;;;;7.00;101414.00;;;;10351449;28;21705;-72
2023/10/16 23:03:14;;;;;;;23.70;12.17;;;;;7.00;101407.00;;;;10354440;28;20292;-72
2023/10/16 23:08:16;;;;;;;15.90;11.03;;;;;7.00;101394.00;;;;10331783;28;20218;-72
2023/10/16 23:13:24;;;;;;;28.23;13.83;;;;;7.00;101403.00;;;;10340023;28;21313;-72
2023/10/16 23:18:28;;;;;;;32.53;16.63;;;;;7.10;101388.00;;;;10333127;28;20210;-71
2023/10/16 23:23:30;;;;;;;31.20;14.47;;;;;7.10;101393.00;;;;10331346;28;21904;-70
2023/10/16 23:28:36;;;;;;;22.23;12.80;;;;;7.10;101398.00;;;;10334392;28;20238;-71
2023/10/16 23:33:46;;;;;;;24.13;12.30;;;;;7.10;101388.00;;;;10331875;28;20345;-72
2023/10/16 23:38:49;;;;;;;23.33;13.57;;;;;7.10;101388.00;;;;10332671;28;20237;-71
2023/10/16 23:43:51;;;;;;;20.90;11.20;;;;;7.10;101393.00;;;;10333228;28;20279;-71
2023/10/16 23:49:08;;;;;;;20.93;12.03;;;;;7.10;101385.00;;;;10332812;28;20272;-71
2023/10/16 23:54:13;;;;;;;18.27;11.73;;;;;7.00;101365.00;;;;10330421;28;20859;-72
2023/10/16 23:59:18;;;;;;;16.67;11.43;;;;;7.10;101363.00;;;;10328663;28;20343;-70
